Aviation Digital Data Service (ADDS)

Output produced by METARs form (2150 UTC 26 July 2016)
found at http://aviationweather.gov/adds/metars/
 
KCLT 262029Z 2620/2718 22009KT P6SM SCT060 SCT250 
     TEMPO 2620/2624 VRB10G18KT 4SM -TSRA BKN050CB 
     FM270300 24003KT P6SM FEW060 SCT250